createdAt,value
2018-12-22T00:00:23.343Z,7.10
2018-12-22T00:02:51.815Z,7.10
2018-12-22T00:05:20.276Z,7.10
2018-12-22T00:07:48.707Z,7.00
2018-12-22T00:10:17.175Z,7.10
2018-12-22T00:12:45.578Z,7.20
2018-12-22T00:15:14.037Z,7.30
2018-12-22T00:17:42.453Z,7.40
2018-12-22T00:20:11.899Z,7.30
2018-12-22T00:22:40.423Z,7.40
2018-12-22T00:25:08.883Z,7.40
2018-12-22T00:27:38.772Z,7.40
2018-12-22T00:30:08.495Z,7.40
2018-12-22T00:32:36.944Z,7.40
2018-12-22T00:35:06.131Z,7.50
2018-12-22T00:37:34.629Z,7.50
2018-12-22T00:40:03.432Z,7.50
2018-12-22T00:42:31.851Z,7.50
2018-12-22T00:45:00.300Z,7.50
2018-12-22T00:47:28.758Z,7.50
2018-12-22T00:49:57.163Z,7.50
2018-12-22T00:52:25.563Z,7.40
2018-12-22T00:54:54.025Z,7.50
2018-12-22T00:57:22.511Z,7.50
2018-12-22T00:59:50.907Z,7.50
2018-12-22T01:02:20.075Z,7.60
2018-12-22T01:04:48.495Z,7.60
2018-12-22T01:07:16.951Z,7.60
2018-12-22T01:09:45.367Z,7.60
2018-12-22T01:12:13.795Z,7.60
2018-12-22T01:14:42.247Z,7.50
2018-12-22T01:17:10.700Z,7.50
2018-12-22T01:19:39.179Z,7.50
2018-12-22T01:22:07.616Z,7.60
2018-12-22T01:24:36.107Z,7.60
2018-12-22T01:27:04.668Z,7.60
2018-12-22T01:29:33.126Z,7.60
2018-12-22T01:32:01.576Z,7.50
2018-12-22T01:34:30.151Z,7.60
2018-12-22T01:36:58.584Z,7.60
2018-12-22T01:39:27.020Z,7.80
2018-12-22T01:41:55.474Z,7.80
2018-12-22T01:44:23.927Z,7.90
2018-12-22T01:46:52.375Z,8.20
2018-12-22T01:49:20.785Z,8.30
2018-12-22T01:51:49.464Z,8.30
2018-12-22T01:54:17.919Z,8.50
2018-12-22T01:56:46.367Z,8.60
2018-12-22T01:59:14.772Z,8.60
2018-12-22T02:01:43.247Z,8.60
2018-12-22T02:04:11.671Z,8.60
2018-12-22T02:06:40.141Z,8.50
2018-12-22T02:09:08.752Z,8.50
2018-12-22T02:11:37.239Z,8.50
2018-12-22T02:14:05.682Z,8.50
2018-12-22T02:16:34.120Z,8.60
2018-12-22T02:19:02.596Z,8.70
2018-12-22T02:21:31.059Z,8.70
2018-12-22T02:23:59.461Z,8.80
2018-12-22T02:26:27.879Z,8.90
2018-12-22T02:28:56.967Z,9.00
2018-12-22T02:31:26.466Z,9.10
2018-12-22T02:33:54.918Z,9.10
2018-12-22T02:36:23.449Z,9.30
2018-12-22T02:38:51.863Z,9.40
2018-12-22T02:41:20.312Z,9.30
2018-12-22T02:43:48.763Z,9.20
2018-12-22T02:46:17.159Z,9.40
2018-12-22T02:48:45.572Z,9.50
2018-12-22T02:51:14.054Z,9.60
2018-12-22T02:53:42.471Z,9.80
2018-12-22T02:56:10.924Z,9.90
2018-12-22T02:58:39.364Z,10.00
2018-12-22T03:01:07.776Z,10.10
2018-12-22T03:03:37.036Z,10.20
2018-12-22T03:06:05.444Z,10.10
2018-12-22T03:08:33.860Z,10.00
2018-12-22T03:11:02.319Z,10.00
2018-12-22T03:13:30.770Z,10.10
2018-12-22T03:15:59.212Z,10.10
2018-12-22T03:18:27.626Z,10.20
2018-12-22T03:20:56.083Z,10.30
2018-12-22T03:23:24.543Z,10.30
2018-12-22T03:25:53.707Z,10.20
2018-12-22T03:28:22.162Z,10.10
2018-12-22T03:30:50.634Z,10.00
2018-12-22T03:33:19.047Z,10.00
2018-12-22T03:35:47.460Z,9.90
2018-12-22T03:38:15.892Z,9.90
2018-12-22T03:40:45.382Z,9.90
2018-12-22T03:43:13.891Z,9.90
2018-12-22T03:45:42.342Z,9.90
2018-12-22T03:48:10.767Z,10.00
2018-12-22T03:50:39.175Z,10.00
2018-12-22T03:53:07.663Z,10.00
2018-12-22T03:55:36.123Z,10.10
2018-12-22T03:58:04.545Z,10.10
2018-12-22T04:00:33.029Z,10.00
2018-12-22T04:03:01.427Z,10.10
2018-12-22T04:05:29.855Z,10.10
2018-12-22T04:07:58.299Z,10.10
2018-12-22T04:10:26.920Z,10.30
2018-12-22T04:12:55.543Z,10.30
2018-12-22T04:15:24.003Z,10.20
2018-12-22T04:17:52.466Z,10.30
2018-12-22T04:20:20.877Z,10.30
2018-12-22T04:22:49.345Z,10.30
2018-12-22T04:25:17.767Z,10.20
2018-12-22T04:27:46.179Z,10.20
2018-12-22T04:30:14.659Z,10.30
2018-12-22T04:32:43.071Z,10.30
2018-12-22T04:35:11.517Z,10.20
2018-12-22T04:37:39.945Z,10.20
2018-12-22T04:40:08.412Z,10.20
2018-12-22T04:42:36.858Z,10.20
2018-12-22T04:45:05.693Z,10.10
2018-12-22T04:47:34.115Z,10.10
2018-12-22T04:50:02.657Z,10.10
2018-12-22T04:52:31.267Z,10.00
2018-12-22T04:54:59.751Z,10.00
2018-12-22T04:57:28.217Z,9.90
2018-12-22T04:59:56.641Z,9.90
2018-12-22T05:02:25.098Z,9.90
2018-12-22T05:04:53.536Z,9.90
2018-12-22T05:07:22.001Z,10.00
2018-12-22T05:09:50.424Z,10.00
2018-12-22T05:12:18.839Z,10.00
2018-12-22T05:14:47.304Z,10.00
2018-12-22T05:17:15.727Z,10.00
2018-12-22T05:19:44.171Z,10.00
2018-12-22T05:22:12.581Z,10.00
2018-12-22T05:24:41.024Z,10.00
2018-12-22T05:27:09.594Z,10.10
2018-12-22T05:29:38.044Z,10.10
2018-12-22T05:32:06.496Z,10.10
2018-12-22T05:34:34.943Z,10.10
2018-12-22T05:37:03.355Z,10.10
2018-12-22T05:39:31.821Z,10.20
2018-12-22T05:42:00.309Z,10.30
2018-12-22T05:44:29.661Z,10.20
2018-12-22T05:46:58.078Z,10.30
2018-12-22T05:49:26.495Z,10.30
2018-12-22T05:51:54.949Z,10.40
2018-12-22T05:54:23.549Z,10.30
2018-12-22T05:56:52.031Z,10.20
2018-12-22T05:59:20.479Z,10.20
2018-12-22T06:01:48.899Z,10.20
2018-12-22T06:04:17.360Z,10.20
2018-12-22T06:06:45.836Z,10.10
2018-12-22T06:09:14.268Z,10.10
2018-12-22T06:11:42.716Z,10.20
2018-12-22T06:14:11.210Z,10.20
2018-12-22T06:16:39.615Z,10.20
2018-12-22T06:19:08.073Z,10.10
2018-12-22T06:21:36.539Z,10.20
2018-12-22T06:24:04.949Z,10.20
2018-12-22T06:26:33.408Z,10.20
2018-12-22T06:29:01.837Z,10.20
2018-12-22T06:31:30.311Z,10.10
2018-12-22T06:33:58.724Z,10.00
2018-12-22T06:36:27.190Z,10.00
2018-12-22T06:38:55.624Z,10.10
2018-12-22T06:41:24.071Z,10.10
2018-12-22T06:43:52.548Z,10.00
2018-12-22T06:46:20.971Z,10.00
2018-12-22T06:48:49.416Z,9.90
2018-12-22T06:51:17.851Z,9.90
2018-12-22T06:53:46.276Z,9.80
2018-12-22T06:56:14.719Z,9.80
2018-12-22T06:58:43.191Z,9.90
2018-12-22T07:01:11.638Z,10.20
2018-12-22T07:03:40.044Z,10.40
2018-12-22T07:06:08.503Z,10.50
2018-12-22T07:08:36.927Z,10.60
2018-12-22T07:11:05.343Z,10.60
2018-12-22T07:13:33.802Z,10.50
2018-12-22T07:16:02.264Z,10.60
2018-12-22T07:18:30.680Z,10.60
2018-12-22T07:20:59.206Z,10.50
2018-12-22T07:23:27.665Z,10.50
2018-12-22T07:25:56.091Z,10.50
2018-12-22T07:28:24.502Z,10.50
2018-12-22T07:30:54.597Z,10.50
2018-12-22T07:33:23.289Z,10.50
2018-12-22T07:35:51.807Z,10.40
2018-12-22T07:38:20.227Z,10.30
2018-12-22T07:40:48.679Z,10.30
2018-12-22T07:43:17.147Z,10.30
2018-12-22T07:45:45.556Z,10.30
2018-12-22T07:48:13.992Z,10.20
2018-12-22T07:50:42.463Z,10.10
2018-12-22T07:53:10.893Z,10.00
2018-12-22T07:55:39.343Z,10.10
2018-12-22T07:58:07.772Z,10.00
2018-12-22T08:00:36.211Z,10.00
2018-12-22T08:03:04.849Z,10.00
2018-12-22T08:05:38.637Z,10.00
2018-12-22T08:08:03.791Z,10.00
2018-12-22T08:10:32.291Z,10.10
2018-12-22T08:13:01.040Z,10.10
2018-12-22T08:15:29.491Z,10.10
2018-12-22T08:17:57.948Z,10.10
2018-12-22T08:20:26.475Z,10.00
2018-12-22T08:22:54.889Z,9.90
2018-12-22T08:25:23.382Z,9.90
2018-12-22T08:27:51.811Z,9.90
2018-12-22T08:30:20.266Z,9.90
2018-12-22T08:32:48.672Z,9.80
2018-12-22T08:35:17.176Z,9.80
2018-12-22T08:37:45.624Z,9.80
2018-12-22T08:40:14.079Z,9.80
2018-12-22T08:42:42.492Z,9.80
2018-12-22T08:45:10.907Z,9.80
2018-12-22T08:47:39.371Z,9.80
2018-12-22T08:50:09.820Z,9.90
2018-12-22T08:52:38.243Z,9.90
2018-12-22T08:55:07.726Z,10.00
2018-12-22T08:57:37.842Z,10.00
2018-12-22T09:00:09.602Z,10.00
2018-12-22T09:02:38.031Z,10.10
2018-12-22T09:05:06.760Z,10.20
2018-12-22T09:07:35.324Z,10.30
2018-12-22T09:10:04.556Z,10.30
2018-12-22T09:12:33.001Z,10.30
2018-12-22T09:15:01.426Z,10.40
2018-12-22T09:17:30.924Z,10.40
2018-12-22T09:19:59.350Z,10.50
2018-12-22T09:22:27.871Z,10.50
2018-12-22T09:24:56.286Z,10.50
2018-12-22T09:27:24.763Z,10.40
2018-12-22T09:29:53.251Z,10.40
2018-12-22T09:32:21.693Z,10.40
2018-12-22T09:34:50.136Z,10.30
2018-12-22T09:37:18.563Z,10.30
2018-12-22T09:39:47.033Z,10.20
2018-12-22T09:42:15.443Z,10.10
2018-12-22T09:44:43.860Z,10.20
2018-12-22T09:47:12.292Z,10.20
2018-12-22T09:49:40.708Z,10.10
2018-12-22T09:52:09.164Z,10.10
2018-12-22T09:54:37.575Z,10.10
2018-12-22T09:57:06.020Z,10.10
2018-12-22T09:59:34.670Z,10.10
2018-12-22T10:02:03.131Z,10.10
2018-12-22T10:04:31.623Z,10.10
2018-12-22T10:07:00.036Z,10.00
2018-12-22T10:09:28.466Z,10.00
2018-12-22T10:11:56.932Z,9.90
2018-12-22T10:14:25.356Z,9.90
2018-12-22T10:16:53.830Z,9.90
2018-12-22T10:19:22.227Z,9.90
2018-12-22T10:21:50.692Z,9.90
2018-12-22T10:24:19.160Z,9.80
2018-12-22T10:26:47.592Z,9.80
2018-12-22T10:29:16.019Z,9.90
2018-12-22T10:31:44.419Z,9.80
2018-12-22T10:34:12.895Z,9.80
2018-12-22T10:36:41.344Z,9.70
2018-12-22T10:39:09.862Z,9.70
2018-12-22T10:41:38.275Z,9.70
2018-12-22T10:44:06.727Z,9.70
2018-12-22T10:46:35.203Z,9.70
2018-12-22T10:49:03.634Z,9.80
2018-12-22T10:51:32.087Z,9.80
2018-12-22T10:54:00.499Z,9.80
2018-12-22T10:56:28.963Z,9.80
2018-12-22T10:58:57.971Z,9.80
2018-12-22T11:01:26.951Z,9.80
2018-12-22T11:03:55.987Z,9.80
2018-12-22T11:06:24.431Z,9.80
2018-12-22T11:08:52.883Z,9.80
2018-12-22T11:11:21.379Z,9.90
2018-12-22T11:13:50.470Z,9.90
2018-12-22T11:16:18.939Z,10.00
2018-12-22T11:18:47.372Z,10.10
2018-12-22T11:21:15.805Z,10.20
2018-12-22T11:23:44.232Z,10.30
2018-12-22T11:26:12.736Z,10.30
2018-12-22T11:28:41.180Z,10.50
2018-12-22T11:31:09.651Z,10.50
2018-12-22T11:33:38.230Z,10.70
2018-12-22T11:36:06.750Z,10.90
2018-12-22T11:38:35.199Z,10.80
2018-12-22T11:41:03.611Z,10.90
2018-12-22T11:43:32.063Z,10.90
2018-12-22T11:46:00.511Z,10.90
2018-12-22T11:48:45.451Z,10.90
2018-12-22T11:51:13.865Z,10.90
2018-12-22T11:53:42.321Z,10.80
2018-12-22T11:56:10.733Z,10.90
2018-12-22T11:58:39.320Z,10.90
2018-12-22T12:01:07.780Z,10.90
2018-12-22T12:03:36.239Z,10.80
2018-12-22T12:06:04.669Z,10.80
2018-12-22T12:08:33.099Z,10.70
2018-12-22T12:11:01.684Z,10.60
2018-12-22T12:13:30.148Z,10.60
2018-12-22T12:16:21.987Z,10.60
2018-12-22T12:19:28.836Z,10.60
2018-12-22T12:21:57.232Z,10.60
2018-12-22T12:24:26.451Z,10.50
2018-12-22T12:26:54.863Z,10.50
2018-12-22T12:29:23.344Z,10.50
2018-12-22T12:31:52.170Z,10.50
2018-12-22T12:34:21.689Z,10.40
2018-12-22T12:36:50.103Z,10.30
2018-12-22T12:39:18.547Z,10.20
2018-12-22T12:41:46.959Z,10.20
2018-12-22T12:44:15.414Z,10.10
2018-12-22T12:46:47.175Z,10.10
2018-12-22T12:49:16.383Z,10.10
2018-12-22T12:51:44.842Z,10.00
2018-12-22T12:54:13.339Z,10.00
2018-12-22T12:56:48.896Z,10.00
2018-12-22T12:59:17.292Z,9.90
2018-12-22T13:01:45.744Z,9.90
2018-12-22T13:04:14.173Z,9.90
2018-12-22T13:06:42.596Z,9.90
2018-12-22T13:09:11.027Z,10.00
2018-12-22T13:11:39.493Z,10.00
2018-12-22T13:14:12.351Z,10.10
2018-12-22T13:16:40.773Z,10.10
2018-12-22T13:19:09.252Z,10.20
2018-12-22T13:21:38.799Z,10.20
2018-12-22T13:24:07.376Z,10.30
2018-12-22T13:26:36.903Z,10.40
2018-12-22T13:29:06.271Z,10.50
2018-12-22T13:31:34.836Z,10.50
2018-12-22T13:34:04.237Z,10.50
2018-12-22T13:36:34.850Z,10.60
2018-12-22T13:39:10.908Z,10.60
2018-12-22T13:41:39.472Z,10.60
2018-12-22T13:44:07.995Z,10.70
2018-12-22T13:46:37.235Z,10.70
2018-12-22T13:49:06.155Z,10.70
2018-12-22T13:51:35.207Z,10.70
2018-12-22T13:54:03.944Z,10.70
2018-12-22T13:56:32.367Z,10.70
2018-12-22T13:59:00.825Z,10.70
2018-12-22T14:01:31.003Z,10.70
2018-12-22T14:03:59.451Z,10.70
2018-12-22T14:06:37.631Z,10.70
2018-12-22T14:09:07.561Z,10.80
2018-12-22T14:11:36.103Z,10.70
2018-12-22T14:14:06.299Z,10.70
2018-12-22T14:16:44.855Z,10.70
2018-12-22T14:19:14.184Z,10.60
2018-12-22T14:21:42.590Z,10.60
2018-12-22T14:24:26.819Z,10.60
2018-12-22T14:26:55.314Z,10.60
2018-12-22T14:29:23.742Z,10.60
2018-12-22T14:31:52.207Z,10.50
2018-12-22T14:34:26.943Z,10.60
2018-12-22T14:36:55.400Z,10.60
2018-12-22T14:39:23.802Z,10.60
2018-12-22T14:41:52.323Z,10.60
2018-12-22T14:44:20.746Z,10.60
2018-12-22T14:46:49.223Z,10.60
2018-12-22T14:49:17.768Z,10.60
2018-12-22T14:51:46.180Z,10.50
2018-12-22T14:54:14.767Z,10.50
2018-12-22T14:56:45.928Z,10.50
2018-12-22T14:59:17.094Z,10.50
2018-12-22T15:01:49.542Z,10.50
2018-12-22T15:04:18.038Z,10.50
2018-12-22T15:06:46.487Z,10.50
2018-12-22T15:09:15.227Z,10.50
2018-12-22T15:11:43.976Z,10.50
2018-12-22T15:14:12.577Z,10.50
2018-12-22T15:16:41.062Z,10.50
2018-12-22T15:19:09.516Z,10.50
2018-12-22T15:21:38.612Z,10.60
2018-12-22T15:24:08.555Z,10.50
2018-12-22T15:26:37.003Z,10.50
2018-12-22T15:29:05.463Z,10.50
2018-12-22T15:31:34.089Z,10.50
2018-12-22T15:34:02.568Z,10.40
2018-12-22T15:36:31.043Z,10.40
2018-12-22T15:38:59.455Z,10.30
2018-12-22T15:41:27.992Z,10.30
2018-12-22T15:43:56.525Z,10.30
2018-12-22T15:46:27.156Z,10.30
2018-12-22T15:48:55.591Z,10.30
2018-12-22T15:51:24.036Z,10.30
2018-12-22T15:53:52.467Z,10.30
2018-12-22T15:56:20.866Z,10.30
2018-12-22T15:58:49.348Z,10.20
2018-12-22T16:01:17.768Z,10.10
2018-12-22T16:03:48.361Z,10.00
2018-12-22T16:06:16.760Z,10.00
2018-12-22T16:08:45.211Z,10.00
2018-12-22T16:11:13.687Z,9.90
2018-12-22T16:13:42.203Z,9.90
2018-12-22T16:16:10.766Z,9.80
2018-12-22T16:18:39.166Z,9.80
2018-12-22T16:21:07.667Z,9.70
2018-12-22T16:23:36.072Z,9.70
2018-12-22T16:26:04.529Z,9.60
2018-12-22T16:28:36.619Z,9.60
2018-12-22T16:31:05.020Z,9.60
2018-12-22T16:33:33.449Z,9.60
2018-12-22T16:36:01.855Z,9.60
2018-12-22T16:38:30.335Z,9.50
2018-12-22T16:40:58.760Z,9.50
2018-12-22T16:43:28.199Z,9.40
2018-12-22T16:45:56.642Z,9.40
2018-12-22T16:48:25.611Z,9.30
2018-12-22T16:50:54.023Z,9.20
2018-12-22T16:53:22.787Z,9.10
2018-12-22T16:55:51.212Z,9.00
2018-12-22T16:58:37.466Z,8.90
2018-12-22T17:02:11.887Z,8.90
2018-12-22T17:04:40.297Z,8.80
2018-12-22T17:07:08.751Z,8.80
2018-12-22T17:09:37.327Z,8.70
2018-12-22T17:12:06.058Z,8.70
2018-12-22T17:14:35.083Z,8.70
2018-12-22T17:17:03.543Z,8.70
2018-12-22T17:19:31.955Z,8.60
2018-12-22T17:22:08.127Z,8.50
2018-12-22T17:24:47.023Z,8.40
2018-12-22T17:27:15.463Z,8.30
2018-12-22T17:29:43.911Z,8.20
2018-12-22T17:32:12.367Z,8.10
2018-12-22T17:34:40.818Z,8.10
2018-12-22T17:37:09.271Z,8.10
2018-12-22T17:39:37.687Z,8.00
2018-12-22T17:42:06.084Z,7.90
2018-12-22T17:44:34.662Z,7.90
2018-12-22T17:47:03.116Z,8.00
2018-12-22T17:49:31.535Z,8.10
2018-12-22T17:51:59.947Z,8.20
2018-12-22T17:54:28.741Z,8.40
2018-12-22T17:56:57.276Z,8.50
2018-12-22T17:59:25.675Z,8.70
2018-12-22T18:01:54.148Z,8.80
2018-12-22T18:04:22.675Z,8.90
2018-12-22T18:06:51.127Z,9.00
2018-12-22T18:09:19.557Z,9.10
2018-12-22T18:11:49.075Z,9.10
2018-12-22T18:14:17.545Z,9.20
2018-12-22T18:16:45.950Z,9.20
2018-12-22T18:19:14.404Z,9.20
2018-12-22T18:21:42.811Z,9.20
2018-12-22T18:24:11.263Z,9.20
2018-12-22T18:26:39.699Z,9.20
2018-12-22T18:29:08.167Z,9.10
2018-12-22T18:31:36.566Z,9.10
2018-12-22T18:34:04.984Z,9.10
2018-12-22T18:36:33.440Z,9.20
2018-12-22T18:39:01.840Z,9.20
2018-12-22T18:41:30.296Z,9.10
2018-12-22T18:43:58.700Z,9.10
2018-12-22T18:46:27.148Z,9.00
2018-12-22T18:48:55.591Z,8.90
2018-12-22T18:51:24.047Z,8.90
2018-12-22T18:53:52.460Z,8.90
2018-12-22T18:56:20.896Z,8.90
2018-12-22T18:58:49.412Z,8.90
2018-12-22T19:01:17.816Z,8.90
2018-12-22T19:03:46.267Z,8.90
2018-12-22T19:06:14.725Z,8.90
2018-12-22T19:08:43.229Z,8.90
2018-12-22T19:11:14.254Z,8.90
2018-12-22T19:13:42.712Z,8.90
2018-12-22T19:16:11.171Z,8.90
2018-12-22T19:18:39.575Z,9.00
2018-12-22T19:21:07.993Z,9.00
2018-12-22T19:23:36.456Z,9.00
2018-12-22T19:26:04.908Z,9.00
2018-12-22T19:28:33.309Z,8.90
2018-12-22T19:31:01.789Z,9.00
2018-12-22T19:33:30.200Z,8.90
2018-12-22T19:35:58.659Z,8.90
2018-12-22T19:38:27.107Z,8.90
2018-12-22T19:40:55.659Z,8.90
2018-12-22T19:43:24.112Z,8.80
2018-12-22T19:45:52.555Z,8.90
2018-12-22T19:48:20.987Z,8.90
2018-12-22T19:50:49.474Z,8.90
2018-12-22T19:53:18.011Z,8.90
2018-12-22T19:55:46.483Z,8.90
2018-12-22T19:58:14.875Z,8.80
2018-12-22T20:00:43.335Z,8.80
2018-12-22T20:03:11.735Z,8.90
2018-12-22T20:05:40.189Z,8.80
2018-12-22T20:08:08.651Z,8.80
2018-12-22T20:10:37.060Z,8.80
2018-12-22T20:13:05.516Z,8.80
2018-12-22T20:15:33.921Z,8.80
2018-12-22T20:18:02.328Z,8.70
2018-12-22T20:20:30.785Z,8.90
2018-12-22T20:22:59.287Z,8.90
2018-12-22T20:25:27.691Z,8.90
2018-12-22T20:27:56.096Z,8.90
2018-12-22T20:30:24.540Z,8.90
2018-12-22T20:32:52.944Z,9.00
2018-12-22T20:35:21.412Z,9.00
2018-12-22T20:37:49.816Z,9.00
2018-12-22T20:40:18.351Z,8.90
2018-12-22T20:42:46.796Z,8.90
2018-12-22T20:45:15.240Z,8.90
2018-12-22T20:47:43.652Z,8.90
2018-12-22T20:50:12.219Z,8.90
2018-12-22T20:52:40.690Z,8.90
2018-12-22T20:55:09.114Z,8.90
2018-12-22T20:57:37.575Z,8.80
2018-12-22T21:00:06.547Z,8.90
2018-12-22T21:02:34.992Z,8.90
2018-12-22T21:05:03.570Z,8.90
2018-12-22T21:07:32.024Z,8.90
2018-12-22T21:10:00.444Z,8.90
2018-12-22T21:12:28.891Z,8.90
2018-12-22T21:14:57.339Z,8.90
2018-12-22T21:17:25.820Z,9.00
2018-12-22T21:19:54.752Z,9.00
2018-12-22T21:22:23.147Z,9.00
2018-12-22T21:24:51.580Z,9.00
2018-12-22T21:27:20.019Z,9.00
2018-12-22T21:29:48.434Z,9.10
2018-12-22T21:32:16.884Z,9.10
2018-12-22T21:34:45.308Z,9.00
2018-12-22T21:37:13.736Z,9.10
2018-12-22T21:39:42.131Z,9.00
2018-12-22T21:42:10.576Z,9.00
2018-12-22T21:44:39.114Z,8.90
2018-12-22T21:47:08.128Z,9.00
2018-12-22T21:49:36.659Z,8.90
2018-12-22T21:52:05.127Z,8.90
2018-12-22T21:54:33.642Z,8.90
2018-12-22T21:57:02.665Z,9.00
2018-12-22T21:59:31.096Z,9.00
2018-12-22T22:01:59.542Z,9.00
2018-12-22T22:04:28.006Z,9.00
2018-12-22T22:06:56.512Z,9.00
2018-12-22T22:09:24.960Z,9.00
2018-12-22T22:11:53.367Z,9.00
2018-12-22T22:14:21.812Z,9.00
2018-12-22T22:16:50.251Z,9.00
2018-12-22T22:19:18.700Z,9.00
2018-12-22T22:21:47.136Z,8.90
2018-12-22T22:24:15.651Z,8.90
2018-12-22T22:26:45.114Z,8.90
2018-12-22T22:29:13.573Z,9.00
2018-12-22T22:31:41.987Z,8.90
2018-12-22T22:34:10.439Z,8.90
2018-12-22T22:36:38.949Z,9.00
2018-12-22T22:39:07.364Z,8.90
2018-12-22T22:41:35.800Z,9.00
2018-12-22T22:44:04.225Z,9.00
2018-12-22T22:46:32.683Z,8.90
2018-12-22T22:49:01.131Z,8.90
2018-12-22T22:51:29.546Z,8.90
2018-12-22T22:53:57.987Z,8.90
2018-12-22T22:56:26.405Z,8.90
2018-12-22T22:58:54.847Z,8.90
2018-12-22T23:01:23.416Z,8.80
2018-12-22T23:03:51.811Z,8.80
2018-12-22T23:06:20.404Z,8.80
2018-12-22T23:08:48.844Z,8.80
2018-12-22T23:11:17.247Z,8.80
2018-12-22T23:13:45.677Z,8.70
2018-12-22T23:16:14.104Z,8.70
2018-12-22T23:18:42.499Z,8.70
2018-12-22T23:21:10.983Z,8.70
2018-12-22T23:23:39.431Z,8.70
2018-12-22T23:26:07.873Z,8.70
2018-12-22T23:28:36.287Z,8.70
2018-12-22T23:31:04.730Z,8.70
2018-12-22T23:33:33.184Z,8.80
2018-12-22T23:36:01.587Z,8.70
2018-12-22T23:38:30.017Z,8.70
2018-12-22T23:40:58.443Z,8.70
2018-12-22T23:43:26.843Z,8.70
2018-12-22T23:45:55.303Z,8.70
2018-12-22T23:48:23.709Z,8.70
2018-12-22T23:50:52.124Z,8.60
2018-12-22T23:53:21.552Z,8.60
2018-12-22T23:55:49.962Z,8.60
2018-12-22T23:58:18.385Z,8.70
